Time;durP1;ratioP1;P1;durP2;ratioP2;P2;SDS_P1;SDS_P2;PMS_P1;PMS_P2;Temp;Humidity;BMP_temperature;BMP_pressure;BME280_temperature;BME280_humidity;BME280_pressure;Samples;Min_cycle;Max_cycle;Signal;HPM_P1;HPM_P2
2022/01/30 00:00:00;;;;;;;33.80;6.40;;;5.80;99.80;;;;;;5078608;28;20615;-81
2022/01/30 00:02:28;;;;;;;25.80;7.13;;;5.70;99.70;;;;;;5082263;28;20285;-79
2022/01/30 00:04:55;;;;;;;25.47;6.97;;;5.70;99.80;;;;;;5080704;28;20230;-79
2022/01/30 00:07:22;;;;;;;35.97;8.30;;;5.80;99.90;;;;;;5080668;28;20557;-79
2022/01/30 00:09:50;;;;;;;25.87;5.93;;;5.70;99.90;;;;;;5079460;28;20221;-78
2022/01/30 00:12:26;;;;;;;27.13;7.37;;;5.70;99.90;;;;;;5072484;28;20680;-78
2022/01/30 00:14:54;;;;;;;27.77;6.30;;;5.60;99.90;;;;;;5076399;28;20247;-79
2022/01/30 00:17:26;;;;;;;23.67;7.00;;;5.60;99.90;;;;;;5081574;28;20236;-78
2022/01/30 00:19:58;;;;;;;32.67;8.20;;;5.60;99.90;;;;;;5080385;28;20235;-79
2022/01/30 00:22:39;;;;;;;31.50;6.80;;;5.50;99.90;;;;;;5079197;28;20229;-79
2022/01/30 00:25:13;;;;;;;32.43;6.53;;;5.50;99.90;;;;;;5082019;28;20330;-79
2022/01/30 00:27:48;;;;;;;27.03;6.37;;;5.50;99.90;;;;;;5083722;28;20233;-80
2022/01/30 00:30:16;;;;;;;28.20;6.23;;;5.50;99.90;;;;;;5082185;28;20239;-80
2022/01/30 00:32:43;;;;;;;30.50;6.00;;;5.50;99.90;;;;;;5087148;28;20230;-80
2022/01/30 00:35:11;;;;;;;37.07;7.80;;;5.40;99.90;;;;;;5081342;28;20228;-78
2022/01/30 00:37:42;;;;;;;26.30;5.63;;;5.40;99.90;;;;;;5081905;28;20220;-78
2022/01/30 00:40:10;;;;;;;27.13;7.13;;;5.40;99.90;;;;;;5067130;28;20240;-79
2022/01/30 00:42:38;;;;;;;31.60;6.20;;;5.40;99.90;;;;;;5095889;28;20609;-79
2022/01/30 00:45:05;;;;;;;28.30;6.40;;;5.40;99.90;;;;;;5072756;28;20230;-79
2022/01/30 00:47:32;;;;;;;22.47;5.10;;;5.30;99.90;;;;;;5080373;28;20222;-79
2022/01/30 00:49:59;;;;;;;25.00;5.40;;;5.20;99.90;;;;;;5076550;28;20319;-79
2022/01/30 00:52:27;;;;;;;22.80;5.63;;;5.20;99.90;;;;;;5070879;28;20259;-80
2022/01/30 00:54:53;;;;;;;30.80;5.90;;;5.20;99.90;;;;;;5070749;28;20230;-79
2022/01/30 00:57:20;;;;;;;27.53;5.27;;;5.10;99.90;;;;;;5082384;28;20300;-80
2022/01/30 00:59:48;;;;;;;23.43;5.60;;;4.90;99.90;;;;;;5077655;28;20590;-80
2022/01/30 01:02:16;;;;;;;30.30;6.63;;;4.90;99.90;;;;;;5075050;28;20592;-79
2022/01/30 01:04:42;;;;;;;29.07;7.07;;;4.80;99.90;;;;;;5080215;28;20700;-78
2022/01/30 01:07:15;;;;;;;29.70;5.50;;;4.70;99.90;;;;;;5082166;28;20223;-79
2022/01/30 01:09:51;;;;;;;28.97;6.70;;;4.70;99.90;;;;;;5078503;28;20313;-80
2022/01/30 01:21:01;;;;;;;23.50;6.13;;;4.60;99.90;;;;;;5073668;28;20233;-80
2022/01/30 01:23:30;;;;;;;31.70;6.27;;;4.50;99.90;;;;;;5075389;28;20239;-79
2022/01/30 01:25:59;;;;;;;25.33;6.17;;;4.50;99.90;;;;;;5078842;28;20224;-80
2022/01/30 01:28:27;;;;;;;24.03;5.20;;;4.50;99.90;;;;;;5074720;28;20234;-80
2022/01/30 01:30:54;;;;;;;21.37;4.93;;;4.50;99.90;;;;;;5073397;28;20229;-80
2022/01/30 01:33:26;;;;;;;26.27;5.80;;;4.40;99.90;;;;;;5082964;28;20696;-81
2022/01/30 01:35:52;;;;;;;23.77;4.83;;;4.50;99.90;;;;;;5080744;28;20236;-80
2022/01/30 01:38:20;;;;;;;24.00;5.17;;;4.50;99.90;;;;;;5067363;28;20436;-80
2022/01/30 01:40:52;;;;;;;27.90;5.20;;;4.50;99.90;;;;;;5083435;28;20284;-80
2022/01/30 01:43:22;;;;;;;20.27;4.63;;;4.50;99.90;;;;;;5081618;28;20261;-79
2022/01/30 01:45:51;;;;;;;26.57;5.47;;;4.50;99.90;;;;;;5079499;28;20460;-79
2022/01/30 01:48:18;;;;;;;26.13;5.47;;;4.60;99.90;;;;;;5079472;28;20224;-79
2022/01/30 01:50:52;;;;;;;28.40;6.47;;;4.60;99.90;;;;;;5085483;28;20338;-79
2022/01/30 01:53:23;;;;;;;26.33;6.00;;;4.60;99.90;;;;;;5073608;28;20222;-79
2022/01/30 01:55:50;;;;;;;27.50;4.80;;;4.60;99.90;;;;;;5082423;28;20251;-79
2022/01/30 01:58:28;;;;;;;18.20;4.10;;;4.60;99.90;;;;;;5085610;28;20230;-79
2022/01/30 02:01:02;;;;;;;20.13;5.10;;;4.70;99.90;;;;;;5076136;28;20227;-79
2022/01/30 02:03:29;;;;;;;20.07;3.87;;;4.70;99.90;;;;;;5082165;28;20236;-79
2022/01/30 02:06:00;;;;;;;21.57;4.97;;;4.70;99.90;;;;;;5086173;28;20776;-79
2022/01/30 02:08:34;;;;;;;20.13;4.83;;;4.80;99.90;;;;;;5080849;28;20231;-79
2022/01/30 02:11:05;;;;;;;19.67;5.40;;;4.80;99.90;;;;;;5081128;28;20231;-81
2022/01/30 02:24:49;;;;;;;23.97;5.67;;;4.90;99.90;;;;;;5079691;28;20848;-80
2022/01/30 02:27:20;;;;;;;22.47;5.37;;;4.80;99.90;;;;;;5086114;28;20345;-80
2022/01/30 02:29:47;;;;;;;26.03;6.77;;;4.80;99.90;;;;;;5079745;28;20983;-80
2022/01/30 02:32:14;;;;;;;25.77;6.90;;;4.80;99.90;;;;;;5083919;28;20238;-79
2022/01/30 02:34:42;;;;;;;19.83;5.87;;;4.80;99.90;;;;;;5082772;28;20234;-80
2022/01/30 02:37:09;;;;;;;25.60;5.50;;;4.80;99.90;;;;;;5084348;28;20220;-79
2022/01/30 02:39:36;;;;;;;27.30;5.47;;;4.70;99.90;;;;;;5079102;28;20237;-79
2022/01/30 02:42:04;;;;;;;27.67;5.80;;;4.70;99.90;;;;;;5084835;28;20331;-79
2022/01/30 02:44:37;;;;;;;27.20;5.80;;;4.70;99.90;;;;;;5080493;28;20780;-78
2022/01/30 02:47:20;;;;;;;28.43;6.63;;;4.60;99.90;;;;;;5077635;28;20250;-78
2022/01/30 02:50:08;;;;;;;29.77;6.33;;;4.60;99.90;;;;;;5076254;28;20629;-79
2022/01/30 02:52:37;;;;;;;31.80;6.43;;;4.60;99.90;;;;;;5074354;28;20219;-78
2022/01/30 02:55:05;;;;;;;26.73;6.50;;;4.50;99.90;;;;;;5080256;28;20595;-78
2022/01/30 02:57:33;;;;;;;29.50;5.83;;;4.50;99.90;;;;;;5079951;28;20226;-78
2022/01/30 03:00:00;;;;;;;35.20;6.70;;;4.50;99.90;;;;;;5077270;28;20214;-78
2022/01/30 03:02:27;;;;;;;23.43;5.40;;;4.50;99.90;;;;;;5074050;28;20227;-79
2022/01/30 03:04:53;;;;;;;21.13;5.13;;;4.50;99.60;;;;;;5080902;28;20314;-78
2022/01/30 03:07:20;;;;;;;20.07;5.07;;;4.50;99.40;;;;;;5083293;28;20588;-78
2022/01/30 03:09:54;;;;;;;25.57;5.30;;;4.50;99.30;;;;;;5081815;28;20234;-78
2022/01/30 03:12:22;;;;;;;28.03;5.43;;;4.50;99.30;;;;;;5078654;28;20229;-78
2022/01/30 03:14:51;;;;;;;16.27;5.63;;;4.50;99.10;;;;;;5081266;28;21218;-79
2022/01/30 03:17:17;;;;;;;27.40;6.40;;;4.60;99.30;;;;;;5073672;28;20226;-79
2022/01/30 03:19:44;;;;;;;29.90;6.57;;;4.70;99.30;;;;;;5078773;28;20788;-79
2022/01/30 03:22:12;;;;;;;29.53;5.63;;;4.70;99.30;;;;;;5080497;28;20664;-79
2022/01/30 03:24:39;;;;;;;23.47;5.47;;;4.70;99.10;;;;;;5078582;28;20227;-79
2022/01/30 03:27:18;;;;;;;22.57;5.43;;;4.70;99.00;;;;;;5087356;28;20271;-78
2022/01/30 03:30:02;;;;;;;30.37;6.73;;;4.70;99.00;;;;;;5082344;28;20313;-80
2022/01/30 03:32:52;;;;;;;29.07;5.40;;;4.70;98.90;;;;;;5055552;28;20227;-79
2022/01/30 03:35:20;;;;;;;24.73;5.73;;;4.70;98.90;;;;;;5078001;28;20318;-79
2022/01/30 03:37:47;;;;;;;23.10;5.10;;;4.70;98.70;;;;;;5084452;28;20219;-79
2022/01/30 03:40:14;;;;;;;24.47;5.60;;;4.70;98.70;;;;;;5078221;28;20243;-79
2022/01/30 03:42:41;;;;;;;24.70;5.53;;;4.70;98.80;;;;;;5077137;28;20297;-79
2022/01/30 03:45:12;;;;;;;25.27;6.03;;;4.70;98.70;;;;;;5074171;28;20227;-79
2022/01/30 03:47:39;;;;;;;19.57;4.70;;;4.70;98.50;;;;;;5084687;28;20249;-80
2022/01/30 03:50:06;;;;;;;21.30;6.17;;;4.70;98.50;;;;;;5076085;28;20225;-79
2022/01/30 03:52:33;;;;;;;25.90;5.73;;;4.70;98.40;;;;;;5078945;28;20227;-79
2022/01/30 03:55:01;;;;;;;21.63;6.07;;;4.80;98.50;;;;;;5081224;28;20712;-79
2022/01/30 03:57:27;;;;;;;25.07;6.37;;;4.80;98.40;;;;;;5082306;28;20231;-79
2022/01/30 03:59:54;;;;;;;24.43;5.70;;;4.80;98.50;;;;;;5067676;28;20220;-79
2022/01/30 04:02:22;;;;;;;30.33;6.50;;;4.80;98.60;;;;;;5075546;28;20681;-79
2022/01/30 04:04:50;;;;;;;29.53;6.30;;;4.90;98.70;;;;;;5080883;28;20303;-79
2022/01/30 04:07:18;;;;;;;27.70;6.47;;;4.80;98.60;;;;;;5082982;28;20859;-79
2022/01/30 04:09:48;;;;;;;27.03;6.00;;;4.80;98.40;;;;;;5073572;28;20319;-79
2022/01/30 04:12:25;;;;;;;25.80;7.03;;;4.80;98.60;;;;;;5081935;28;20317;-78
2022/01/30 04:15:15;;;;;;;23.40;6.00;;;4.80;98.60;;;;;;5063225;28;20239;-79
2022/01/30 04:18:02;;;;;;;21.07;5.80;;;4.80;98.70;;;;;;5077778;28;20236;-79
2022/01/30 04:20:33;;;;;;;26.93;5.93;;;4.80;98.70;;;;;;5075838;28;20228;-78
2022/01/30 04:23:20;;;;;;;23.37;5.20;;;4.80;98.70;;;;;;5074181;28;20223;-79
2022/01/30 04:25:57;;;;;;;25.33;6.60;;;4.80;98.70;;;;;;5070879;28;20231;-79
2022/01/30 04:28:44;;;;;;;26.37;5.80;;;4.80;98.70;;;;;;5078895;28;20227;-79
2022/01/30 04:31:14;;;;;;;25.37;6.33;;;4.80;98.70;;;;;;5079944;28;20255;-79
2022/01/30 04:33:54;;;;;;;27.83;5.47;;;4.80;98.60;;;;;;5079984;28;20235;-79
2022/01/30 04:36:43;;;;;;;28.77;6.73;;;4.80;98.60;;;;;;5080807;28;20339;-78
2022/01/30 04:40:08;;;;;;;23.53;5.60;;;4.80;98.80;;;;;;5073256;28;20236;-78
2022/01/30 04:52:20;;;;;;;34.13;6.20;;;4.80;98.50;;;;;;5075806;28;20289;-78
2022/01/30 04:58:13;;;;;;;29.73;6.17;;;4.80;98.60;;;;;;5078166;28;20269;-80
2022/01/30 05:01:05;;;;;;;24.27;5.30;;;4.90;98.60;;;;;;5079238;28;20230;-80
2022/01/30 05:04:00;;;;;;;29.97;6.93;;;4.90;98.50;;;;;;5079490;28;20259;-81
2022/01/30 05:06:55;;;;;;;18.23;4.13;;;4.90;98.50;;;;;;5077669;28;20326;-80
2022/01/30 05:09:48;;;;;;;29.97;5.70;;;4.80;98.30;;;;;;5057776;28;20822;-81
2022/01/30 05:12:49;;;;;;;20.63;5.07;;;4.90;98.40;;;;;;5058473;28;20315;-80
2022/01/30 05:15:35;;;;;;;19.40;5.33;;;4.80;98.30;;;;;;5082654;28;20353;-78
2022/01/30 05:18:08;;;;;;;23.40;5.67;;;4.80;98.40;;;;;;5081873;28;20218;-78
2022/01/30 05:20:43;;;;;;;26.17;5.97;;;4.80;98.40;;;;;;5085016;28;20259;-78
2022/01/30 05:23:27;;;;;;;28.23;6.37;;;4.80;98.50;;;;;;5079715;28;20309;-78
2022/01/30 05:26:16;;;;;;;28.10;5.87;;;4.70;98.50;;;;;;5080306;28;20230;-79
2022/01/30 05:28:58;;;;;;;32.50;7.50;;;4.70;98.60;;;;;;5083808;28;20740;-79
2022/01/30 05:31:37;;;;;;;26.27;6.67;;;4.70;98.60;;;;;;5083447;28;20820;-80
2022/01/30 05:34:21;;;;;;;24.43;5.83;;;4.60;98.70;;;;;;5079654;28;20309;-79
2022/01/30 05:37:01;;;;;;;20.77;5.30;;;4.60;98.80;;;;;;5082274;28;20230;-80
2022/01/30 05:39:48;;;;;;;29.23;6.70;;;4.60;98.90;;;;;;5083792;28;20740;-79
2022/01/30 05:42:46;;;;;;;25.23;6.23;;;4.60;98.90;;;;;;5084259;28;20342;-79
2022/01/30 05:45:35;;;;;;;23.70;5.20;;;4.60;98.80;;;;;;5079542;28;20672;-79
2022/01/30 05:48:16;;;;;;;21.93;5.53;;;4.60;98.80;;;;;;5079200;28;20247;-78
2022/01/30 05:51:18;;;;;;;24.00;5.97;;;4.60;98.70;;;;;;5020607;28;20292;-80
2022/01/30 05:53:52;;;;;;;22.40;4.83;;;4.60;98.60;;;;;;5065446;28;20230;-80
2022/01/30 05:56:22;;;;;;;32.17;7.43;;;4.60;98.70;;;;;;5084768;28;20234;-79
2022/01/30 05:58:50;;;;;;;21.60;5.60;;;4.70;98.60;;;;;;5084720;28;20223;-79
2022/01/30 06:01:38;;;;;;;29.27;6.17;;;4.70;98.70;;;;;;5048932;27;20223;-79
2022/01/30 06:04:17;;;;;;;23.37;5.40;;;4.70;98.70;;;;;;5081536;28;20652;-78
2022/01/30 06:06:49;;;;;;;28.10;6.90;;;4.70;98.70;;;;;;5087657;28;20227;-79
2022/01/30 06:09:19;;;;;;;34.53;6.93;;;4.70;98.90;;;;;;5088777;28;20227;-79
2022/01/30 06:11:54;;;;;;;23.17;5.73;;;4.70;98.90;;;;;;5085983;28;20802;-79
2022/01/30 06:14:24;;;;;;;25.50;6.00;;;4.70;98.90;;;;;;5083549;28;20294;-79
2022/01/30 06:16:57;;;;;;;24.57;5.57;;;4.70;98.90;;;;;;5083858;28;20226;-80
2022/01/30 06:19:46;;;;;;;23.93;5.57;;;4.70;99.00;;;;;;5083154;28;20231;-79
2022/01/30 06:22:32;;;;;;;28.70;5.83;;;4.70;99.00;;;;;;5077756;28;20589;-79
2022/01/30 06:25:18;;;;;;;30.93;7.30;;;4.70;99.10;;;;;;5082839;28;20230;-79
2022/01/30 06:28:04;;;;;;;27.93;6.43;;;4.70;99.10;;;;;;5077822;28;20774;-79
2022/01/30 06:30:49;;;;;;;28.23;5.97;;;4.70;99.10;;;;;;5085945;28;20238;-79
2022/01/30 06:33:36;;;;;;;28.93;6.77;;;4.70;99.20;;;;;;5065970;28;20235;-78
2022/01/30 06:36:22;;;;;;;25.90;5.70;;;4.70;99.20;;;;;;5081441;28;20250;-78
2022/01/30 06:38:57;;;;;;;17.20;4.33;;;4.70;99.20;;;;;;5081037;28;20219;-78
2022/01/30 06:41:38;;;;;;;25.37;5.53;;;4.70;99.10;;;;;;5087289;28;20234;-78
2022/01/30 06:44:25;;;;;;;24.63;4.63;;;4.70;99.10;;;;;;5073356;28;20238;-79
2022/01/30 06:47:11;;;;;;;21.23;5.00;;;4.70;99.10;;;;;;5079853;28;20267;-83
2022/01/30 06:49:58;;;;;;;22.83;5.43;;;4.70;99.00;;;;;;5058910;28;20661;-81
2022/01/30 06:52:43;;;;;;;20.10;5.73;;;4.70;99.00;;;;;;5081278;28;20223;-81
2022/01/30 06:55:29;;;;;;;25.90;6.30;;;4.70;98.90;;;;;;5083004;28;20308;-81
2022/01/30 06:58:14;;;;;;;28.13;6.10;;;4.70;98.90;;;;;;5085678;28;20227;-81
2022/01/30 07:01:08;;;;;;;23.93;5.80;;;4.80;99.00;;;;;;5049072;28;20838;-82
2022/01/30 07:03:53;;;;;;;18.80;4.77;;;4.80;98.90;;;;;;5078037;28;20360;-81
2022/01/30 07:06:32;;;;;;;27.67;5.70;;;4.70;98.70;;;;;;5081200;28;20708;-82
2022/01/30 07:08:59;;;;;;;22.73;5.23;;;4.70;98.80;;;;;;5077412;28;20291;-82
2022/01/30 07:11:26;;;;;;;24.30;6.57;;;4.70;98.80;;;;;;5089879;28;20709;-82
2022/01/30 07:13:52;;;;;;;25.53;6.17;;;4.70;98.70;;;;;;5085982;28;20590;-82
2022/01/30 07:16:20;;;;;;;26.70;5.87;;;4.70;98.50;;;;;;5081928;28;20246;-82
2022/01/30 07:18:47;;;;;;;24.30;5.70;;;4.70;98.50;;;;;;5080304;28;20219;-82
2022/01/30 07:21:16;;;;;;;23.57;5.17;;;4.70;98.50;;;;;;5080919;28;20223;-81
2022/01/30 07:23:43;;;;;;;19.30;5.40;;;4.70;98.60;;;;;;5072516;28;20314;-82
2022/01/30 07:26:10;;;;;;;30.23;6.20;;;4.70;98.60;;;;;;5080726;28;20222;-82
2022/01/30 07:28:37;;;;;;;29.23;7.23;;;4.70;98.70;;;;;;5079917;28;20260;-81
2022/01/30 07:31:04;;;;;;;26.77;6.73;;;4.70;98.70;;;;;;5079304;28;20250;-81
2022/01/30 07:33:33;;;;;;;30.80;6.07;;;4.70;98.70;;;;;;5078222;28;20220;-83
2022/01/30 07:36:00;;;;;;;28.23;6.33;;;4.70;98.80;;;;;;5081461;28;20224;-84
2022/01/30 07:38:28;;;;;;;26.80;7.30;;;4.70;98.70;;;;;;5081648;28;20251;-84
2022/01/30 07:40:55;;;;;;;31.80;7.37;;;4.70;98.70;;;;;;5083172;28;20277;-83
2022/01/30 07:43:21;;;;;;;23.93;6.27;;;4.70;98.70;;;;;;5089692;28;20714;-84
2022/01/30 07:45:56;;;;;;;29.57;6.60;;;4.70;98.80;;;;;;5083032;28;20277;-82
2022/01/30 07:48:22;;;;;;;32.17;7.07;;;4.70;98.80;;;;;;5082863;28;20261;-82
2022/01/30 07:50:50;;;;;;;31.70;7.17;;;4.70;98.70;;;;;;5083149;28;20352;-82
2022/01/30 07:53:18;;;;;;;31.63;7.20;;;4.80;98.70;;;;;;5082346;28;20343;-83
2022/01/30 07:55:44;;;;;;;34.30;7.67;;;4.80;98.70;;;;;;5079429;28;20231;-81
2022/01/30 07:58:12;;;;;;;35.87;9.27;;;4.80;98.50;;;;;;5089508;28;20733;-83
2022/01/30 08:00:39;;;;;;;32.57;7.07;;;4.80;98.50;;;;;;5082876;28;20231;-83
2022/01/30 08:03:05;;;;;;;40.47;12.33;;;4.90;98.40;;;;;;5081949;28;20234;-83
2022/01/30 08:05:32;;;;;;;32.80;7.80;;;4.90;98.50;;;;;;5086628;28;20227;-84
2022/01/30 08:08:00;;;;;;;35.93;8.57;;;4.90;98.30;;;;;;5078246;28;20773;-85
2022/01/30 08:10:27;;;;;;;32.47;8.90;;;5.00;98.40;;;;;;5075753;28;20239;-84
2022/01/30 08:12:54;;;;;;;38.80;8.27;;;5.00;98.20;;;;;;5083183;28;20312;-83
2022/01/30 08:15:22;;;;;;;33.53;9.23;;;5.00;98.00;;;;;;5078610;28;20222;-85
2022/01/30 08:17:49;;;;;;;34.87;8.03;;;5.10;98.00;;;;;;5085592;28;20231;-81
2022/01/30 08:20:16;;;;;;;41.27;8.90;;;5.10;97.90;;;;;;5084392;28;20229;-79
2022/01/30 08:22:45;;;;;;;28.37;6.93;;;5.20;97.90;;;;;;5087273;28;20224;-83
2022/01/30 08:25:13;;;;;;;29.03;7.13;;;5.10;97.60;;;;;;5078367;28;20232;-82
2022/01/30 08:27:40;;;;;;;34.60;7.77;;;5.10;97.50;;;;;;5071700;28;20227;-80
2022/01/30 08:30:08;;;;;;;31.07;7.63;;;5.10;97.40;;;;;;5076125;28;20235;-81
2022/01/30 08:32:39;;;;;;;43.07;8.50;;;5.10;97.10;;;;;;5074849;28;20228;-82
2022/01/30 08:35:07;;;;;;;25.73;6.90;;;5.20;97.40;;;;;;5067775;28;21120;-81
2022/01/30 08:37:35;;;;;;;39.63;7.63;;;5.20;97.20;;;;;;5069366;28;20234;-82
2022/01/30 08:40:03;;;;;;;26.37;7.77;;;5.30;97.30;;;;;;5080904;28;20580;-80
2022/01/30 08:42:31;;;;;;;29.27;6.43;;;5.30;97.00;;;;;;5081200;28;20319;-77
2022/01/30 08:44:58;;;;;;;30.90;8.17;;;5.20;96.80;;;;;;5075581;28;20235;-78
2022/01/30 08:47:25;;;;;;;30.53;8.57;;;5.30;96.60;;;;;;5080398;28;20305;-77
2022/01/30 08:49:52;;;;;;;32.97;7.47;;;5.30;96.70;;;;;;5076788;28;20227;-77
2022/01/30 08:52:19;;;;;;;30.57;6.67;;;5.30;96.50;;;;;;5077806;28;20658;-77
2022/01/30 08:54:46;;;;;;;30.23;7.47;;;5.30;95.60;;;;;;5078594;28;20817;-78
2022/01/30 08:57:13;;;;;;;33.40;7.03;;;5.30;95.90;;;;;;5078331;28;20232;-77
2022/01/30 08:59:41;;;;;;;29.80;6.97;;;5.40;95.80;;;;;;5071183;28;20232;-77
2022/01/30 09:02:08;;;;;;;35.50;7.17;;;5.40;95.40;;;;;;5082368;28;20223;-77
2022/01/30 09:04:36;;;;;;;30.43;6.93;;;5.40;95.20;;;;;;5081729;28;20233;-77
2022/01/30 09:07:03;;;;;;;31.17;6.40;;;5.40;95.30;;;;;;5084889;28;20228;-77
2022/01/30 09:09:31;;;;;;;29.27;6.80;;;5.40;95.30;;;;;;5082712;28;20232;-77
2022/01/30 09:11:58;;;;;;;24.63;6.67;;;5.50;95.40;;;;;;5075617;28;20324;-77
2022/01/30 09:14:25;;;;;;;29.40;6.87;;;5.50;95.00;;;;;;5081079;28;20324;-77
2022/01/30 09:16:53;;;;;;;32.53;7.00;;;5.50;95.10;;;;;;5074664;28;21238;-77
2022/01/30 09:19:20;;;;;;;25.03;6.20;;;5.50;95.00;;;;;;5080121;28;20228;-77
2022/01/30 09:21:47;;;;;;;30.47;6.90;;;5.50;95.00;;;;;;5076332;28;20229;-77
2022/01/30 09:24:14;;;;;;;27.30;7.13;;;5.50;94.80;;;;;;5080773;28;20236;-78
2022/01/30 09:26:41;;;;;;;30.00;6.67;;;5.50;94.80;;;;;;5080485;28;20230;-77
2022/01/30 09:29:08;;;;;;;28.17;6.80;;;5.60;94.70;;;;;;5078686;28;20255;-78
2022/01/30 09:31:34;;;;;;;32.33;7.10;;;5.60;94.50;;;;;;5073330;28;20245;-78
2022/01/30 09:34:02;;;;;;;29.53;7.73;;;5.60;94.50;;;;;;5077906;28;20228;-80
2022/01/30 09:36:29;;;;;;;37.23;7.33;;;5.60;94.40;;;;;;5080609;28;20296;-81
2022/01/30 09:38:56;;;;;;;24.63;6.50;;;5.60;94.40;;;;;;5077516;28;20229;-80
2022/01/30 09:41:24;;;;;;;27.23;6.83;;;5.60;94.50;;;;;;5072709;28;20291;-79
2022/01/30 09:43:52;;;;;;;26.47;6.67;;;5.70;94.70;;;;;;5072788;28;20253;-80
2022/01/30 09:46:19;;;;;;;30.03;6.87;;;5.80;94.50;;;;;;5076532;28;20229;-79
2022/01/30 09:48:47;;;;;;;28.47;7.10;;;5.80;94.50;;;;;;5078616;28;20236;-77
2022/01/30 09:51:15;;;;;;;30.70;6.70;;;5.90;94.50;;;;;;5075015;28;20227;-77
2022/01/30 09:53:41;;;;;;;23.53;6.57;;;6.00;94.20;;;;;;5076324;28;20255;-77
2022/01/30 09:56:08;;;;;;;31.67;7.60;;;6.10;94.50;;;;;;5078439;28;20316;-77
2022/01/30 09:58:35;;;;;;;23.93;6.83;;;6.10;94.10;;;;;;5079030;28;20322;-77
2022/01/30 10:01:02;;;;;;;27.90;7.63;;;6.20;94.00;;;;;;5082224;28;20252;-77
2022/01/30 10:03:28;;;;;;;20.87;5.90;;;6.20;93.80;;;;;;5081574;28;20316;-77
2022/01/30 10:06:07;;;;;;;27.97;6.77;;;6.30;93.30;;;;;;5078511;28;20304;-77
2022/01/30 10:08:41;;;;;;;30.03;7.03;;;6.20;92.90;;;;;;5076037;28;20409;-77
2022/01/30 10:11:27;;;;;;;27.13;6.87;;;6.20;93.20;;;;;;5081588;28;20224;-77
2022/01/30 10:14:03;;;;;;;25.47;6.07;;;6.30;93.30;;;;;;5081183;28;20236;-77
2022/01/30 10:16:35;;;;;;;29.33;6.67;;;6.30;93.40;;;;;;5075137;28;20257;-77
2022/01/30 10:19:10;;;;;;;29.90;7.13;;;6.30;93.40;;;;;;5074791;28;20229;-77
2022/01/30 10:21:37;;;;;;;28.43;6.27;;;6.30;93.30;;;;;;5073040;28;20316;-77
2022/01/30 10:24:21;;;;;;;30.97;6.33;;;6.40;93.30;;;;;;5078777;28;20608;-77
2022/01/30 10:26:48;;;;;;;32.27;6.93;;;6.40;93.30;;;;;;5077406;28;20228;-77
2022/01/30 10:29:22;;;;;;;31.70;7.83;;;6.50;93.70;;;;;;5081303;28;20246;-77
2022/01/30 10:32:00;;;;;;;38.20;7.40;;;6.50;93.60;;;;;;5077253;28;20231;-77
2022/01/30 10:34:27;;;;;;;28.73;6.50;;;6.60;93.70;;;;;;5079319;28;20230;-78
2022/01/30 10:37:13;;;;;;;26.30;7.10;;;6.60;93.80;;;;;;5076604;28;21303;-78
2022/01/30 10:39:55;;;;;;;28.07;7.43;;;6.70;93.50;;;;;;5078297;28;20238;-78
2022/01/30 10:42:41;;;;;;;34.23;7.40;;;6.80;93.30;;;;;;5080226;28;20254;-78
2022/01/30 10:45:11;;;;;;;27.47;6.83;;;6.90;92.70;;;;;;5076282;28;20310;-78
2022/01/30 10:47:38;;;;;;;27.53;6.83;;;6.90;92.40;;;;;;5075438;28;20228;-78
2022/01/30 10:50:17;;;;;;;22.87;5.63;;;7.00;92.40;;;;;;5076772;28;20886;-78
2022/01/30 10:52:56;;;;;;;34.30;7.40;;;7.10;92.10;;;;;;5081304;28;20976;-78
2022/01/30 10:55:43;;;;;;;23.50;6.20;;;7.20;92.10;;;;;;5078665;28;20225;-78
2022/01/30 10:58:13;;;;;;;28.07;7.10;;;7.30;91.70;;;;;;5077777;28;20435;-78
2022/01/30 11:00:43;;;;;;;26.37;6.23;;;7.40;91.30;;;;;;5078098;28;20231;-78
2022/01/30 11:03:16;;;;;;;26.20;6.60;;;7.40;91.40;;;;;;5077697;28;20673;-78
2022/01/30 11:05:54;;;;;;;19.87;6.00;;;7.50;91.00;;;;;;5081069;28;20225;-78
2022/01/30 11:08:23;;;;;;;22.70;6.10;;;7.50;90.90;;;;;;5074767;28;20389;-78
2022/01/30 11:11:05;;;;;;;23.53;6.77;;;7.50;90.80;;;;;;5076158;28;20228;-78
2022/01/30 11:13:47;;;;;;;28.13;6.70;;;7.50;90.50;;;;;;5073705;28;20235;-78
2022/01/30 11:19:00;;;;;;;29.47;7.03;;;7.50;91.20;;;;;;5075907;28;20234;-78
2022/01/30 11:21:30;;;;;;;25.97;6.20;;;7.50;91.30;;;;;;5080654;28;20252;-78
2022/01/30 11:23:59;;;;;;;30.20;7.03;;;7.50;90.90;;;;;;5075348;28;21008;-78
2022/01/30 11:26:28;;;;;;;23.70;6.67;;;7.50;90.70;;;;;;5080476;28;20231;-78
2022/01/30 11:28:56;;;;;;;30.53;6.97;;;7.60;91.00;;;;;;5078046;28;20222;-78
2022/01/30 11:31:23;;;;;;;28.90;6.93;;;7.50;90.90;;;;;;5072695;28;20241;-78
2022/01/30 11:33:52;;;;;;;25.10;6.20;;;7.50;90.80;;;;;;5073226;28;20227;-78
2022/01/30 11:36:21;;;;;;;27.50;6.70;;;7.40;90.80;;;;;;5073520;28;20963;-79
2022/01/30 11:38:48;;;;;;;25.23;6.20;;;7.40;90.70;;;;;;5081653;28;20230;-78
2022/01/30 11:41:16;;;;;;;25.03;6.67;;;7.30;90.60;;;;;;5074809;28;20268;-78
2022/01/30 11:44:16;;;;;;;27.13;6.17;;;7.30;90.80;;;;;;5071708;28;20224;-77
2022/01/30 11:46:45;;;;;;;22.27;5.67;;;7.20;90.60;;;;;;5072851;28;20236;-78
2022/01/30 11:49:13;;;;;;;26.23;6.40;;;7.20;90.50;;;;;;5079732;28;20230;-78
2022/01/30 11:51:49;;;;;;;31.97;7.00;;;7.20;90.70;;;;;;5077718;28;20242;-78
2022/01/30 11:54:36;;;;;;;24.07;6.20;;;7.20;90.70;;;;;;5077416;28;20230;-78
2022/01/30 11:57:04;;;;;;;20.20;5.70;;;7.20;90.80;;;;;;5078307;28;20405;-78
2022/01/30 11:59:38;;;;;;;23.10;6.40;;;7.20;90.80;;;;;;5081883;28;20573;-78
2022/01/30 12:02:25;;;;;;;22.03;6.77;;;7.20;90.90;;;;;;5072881;28;20234;-78
2022/01/30 12:04:57;;;;;;;26.30;5.70;;;7.30;90.20;;;;;;5075344;28;20385;-78
2022/01/30 12:07:34;;;;;;;18.70;5.90;;;7.30;90.20;;;;;;5077314;28;20240;-78
2022/01/30 12:10:32;;;;;;;27.43;6.27;;;7.30;90.00;;;;;;5079294;28;20234;-78
2022/01/30 12:13:01;;;;;;;25.27;7.10;;;7.30;90.10;;;;;;5068991;28;20238;-79
2022/01/30 12:15:37;;;;;;;21.13;6.27;;;7.30;90.20;;;;;;5072223;28;20224;-78
2022/01/30 12:18:08;;;;;;;19.97;4.70;;;7.30;90.00;;;;;;5077801;28;20336;-78
2022/01/30 12:21:01;;;;;;;19.03;4.40;;;7.30;89.80;;;;;;5077237;28;20292;-79
2022/01/30 12:23:29;;;;;;;21.77;5.27;;;7.20;89.70;;;;;;5077533;28;20320;-78
2022/01/30 12:26:03;;;;;;;26.40;5.90;;;7.20;89.20;;;;;;5087006;28;20233;-79
2022/01/30 12:28:44;;;;;;;23.30;6.07;;;7.20;89.50;;;;;;5078194;28;20240;-79
2022/01/30 12:31:28;;;;;;;21.43;4.87;;;7.10;88.70;;;;;;5073967;28;20297;-79
2022/01/30 12:34:01;;;;;;;19.90;5.43;;;7.10;89.00;;;;;;5080420;28;20317;-79
2022/01/30 12:36:30;;;;;;;21.73;6.50;;;7.10;89.30;;;;;;5081150;28;20297;-79
2022/01/30 12:39:06;;;;;;;26.27;6.00;;;7.10;89.50;;;;;;5077599;28;20229;-79
2022/01/30 12:41:34;;;;;;;24.87;6.67;;;7.10;89.60;;;;;;5086469;28;20635;-79
2022/01/30 12:44:04;;;;;;;18.67;5.30;;;7.00;89.30;;;;;;5081988;28;20232;-79
2022/01/30 12:46:35;;;;;;;24.30;5.80;;;7.20;90.30;;;;;;5087724;28;20225;-79
2022/01/30 12:49:09;;;;;;;20.43;5.37;;;7.30;90.30;;;;;;5072496;28;20291;-79
2022/01/30 12:51:38;;;;;;;23.13;5.40;;;7.40;90.00;;;;;;5085172;28;20230;-80
2022/01/30 12:54:05;;;;;;;19.37;5.00;;;7.40;89.10;;;;;;5080197;28;20223;-79
2022/01/30 12:56:33;;;;;;;15.93;4.30;;;7.40;88.70;;;;;;5076713;28;20827;-79
2022/01/30 12:59:06;;;;;;;14.63;4.53;;;7.20;87.50;;;;;;5077877;28;20800;-79
2022/01/30 13:01:35;;;;;;;15.73;4.97;;;7.10;87.10;;;;;;5076644;28;20262;-78
2022/01/30 13:04:04;;;;;;;24.57;5.40;;;7.00;87.40;;;;;;5078939;28;20698;-79
2022/01/30 13:06:35;;;;;;;29.37;9.17;;;6.80;87.80;;;;;;5078786;28;20288;-79
2022/01/30 13:09:02;;;;;;;19.90;6.03;;;6.70;88.10;;;;;;5073228;28;20248;-79
2022/01/30 13:11:28;;;;;;;21.10;5.50;;;6.60;89.30;;;;;;5070254;28;20807;-78
2022/01/30 13:13:58;;;;;;;20.67;5.30;;;6.50;89.20;;;;;;5076385;28;20229;-79
2022/01/30 13:16:27;;;;;;;28.83;6.37;;;6.40;89.50;;;;;;5074919;28;21117;-77
2022/01/30 13:18:54;;;;;;;20.13;5.00;;;6.30;90.00;;;;;;5074972;28;20232;-77
2022/01/30 13:21:25;;;;;;;17.30;4.83;;;6.30;89.20;;;;;;5076773;28;20240;-78
2022/01/30 13:23:54;;;;;;;15.57;4.80;;;6.20;89.20;;;;;;5078746;28;20347;-77
2022/01/30 13:26:39;;;;;;;21.97;4.77;;;6.20;89.30;;;;;;5080873;28;21033;-77
2022/01/30 13:29:15;;;;;;;16.20;4.63;;;6.20;89.20;;;;;;5079685;28;20243;-77
2022/01/30 13:31:42;;;;;;;17.30;4.63;;;6.10;89.80;;;;;;5079507;28;21008;-77
2022/01/30 13:34:15;;;;;;;21.93;5.50;;;6.20;90.20;;;;;;5078373;28;20214;-78
2022/01/30 13:36:43;;;;;;;16.23;4.40;;;6.20;90.30;;;;;;5082561;28;20231;-77
2022/01/30 13:39:16;;;;;;;22.93;4.70;;;6.20;90.30;;;;;;5076990;28;20308;-77
2022/01/30 13:41:49;;;;;;;21.27;5.00;;;6.20;90.30;;;;;;5071615;28;20295;-77
2022/01/30 13:44:24;;;;;;;20.30;4.83;;;6.20;90.50;;;;;;5075464;28;20225;-77
2022/01/30 13:46:58;;;;;;;21.47;4.70;;;6.20;90.30;;;;;;5078769;28;20239;-77
2022/01/30 13:49:25;;;;;;;18.13;5.13;;;6.20;90.10;;;;;;5080341;28;20240;-78
2022/01/30 13:52:05;;;;;;;19.70;5.30;;;6.10;90.20;;;;;;5078513;28;20226;-77